Vliegveldwaarnemingen Nederland - (AUTO) METAR

Luchtvaartmeteorologische informatie voor operationeel gebruik en vluchtvoorbereiding is beschikbaar op www.luchtvaartmeteo.nl.

ZCZC
SA250025 EHKD     DE KOOY/DE KOOY   NLD   1 m.
METAR EHKD 250025Z AUTO 31008KT 280V350 9999 FEW015CB SCT031 OVC035
04/02 Q1005 REDZ BLU=

ZCZC
SA250025 EHFD     F3-FB-1   NLD   50 m.
METAR EHFD 250025Z AUTO 27010KT 2100 SNRA FEW005/// SCT012///
BKN024/// 03/01 Q1003 RESN RERA REDZ=

ZCZC
SA250025 EHAM     AMSTERDAM/SCHIPHOL   NLD   -3 m.
METAR EHAM 250025Z 26009KT 9999 FEW025 07/05 Q1005 RESHRA NOSIG=

ZCZC
SA250025 EHVL     VLIELAND   NLD   10 m.
METAR EHVL 250025Z AUTO 30010KT 9999 FEW011 SCT045 OVC062 05/03 Q1004
REDZ BLU=

ZCZC
SA250025 EHJR     K13-A   NLD   37 m.
METAR EHJR 250025Z NIL=

ZCZC
SA250025 EHLW     LEEUWARDEN/LEEUWARDEN   NLD   1 m.
METAR EHLW 250025Z AUTO 28012KT 220V340 9999 -RA SCT012 BKN015CB
BKN019 05/03 Q1004 GRN=

ZCZC
SA250025 EHDL     ARNHEM/DEELEN   NLD   48 m.
METAR EHDL 250025Z AUTO 21006KT 170V240 9999 -RADZ FEW025 BKN030
OVC068 06/05 Q1006 BLU=

ZCZC
SA250025 EHGG     GRONINGEN/EELDE   NLD   5 m.
METAR EHGG 250025Z AUTO 21005KT 9999 NSC 03/03 Q1004=

ZCZC
SA250025 EHSC     LICHTEILAND GOEREE   NLD   22 m.
METAR EHSC 250025Z NIL=

ZCZC
SA250025 EHSA     EURO PLATFORM   NLD   19 m.
METAR EHSA 250025Z NIL=

ZCZC
SA250025 EHWO     WOENSDRECHT/WOENSDRECHT   NLD   19 m.
METAR EHWO 250025Z AUTO 23006KT 230V310 9999 BKN021 BKN026 OVC032
07/05 Q1007 WHT=

ZCZC
SA250025 EHRD     ROTTERDAM/THE HAGUE AIRPORT   NLD   -5 m.
METAR EHRD 250025Z AUTO 26008KT 220V310 9999 NSC 06/04 Q1006 REDZ
NOSIG=

ZCZC
SA250025 EHGR     GILZE-RIJEN/GILZE-RIJEN   NLD   14 m.
METAR EHGR 250025Z AUTO 22004KT 200V260 9999 DZ FEW032 SCT047 BKN058
07/05 Q1007 BLU=

ZCZC
SA250025 EHEH     EINDHOVEN/EINDHOVEN   NLD   22 m.
METAR EHEH 250025Z AUTO 23005KT 9999 DZ FEW015 BKN052 OVC062 06/05
Q1007
BLU 26008KT CAVOK BECMG SCT020 BKN035=

ZCZC
SA250025 EHVK     VOLKEL/VOLKEL   NLD   21 m.
METAR EHVK 250025Z AUTO 24004KT 9999 DZ FEW022 SCT052 OVC057 06/05
Q1006
BLACKBLU=

ZCZC
SA250025 EHBK     MAASTRICHT/MAASTRICHT-AACHEN   NLD   114 m.
METAR EHBK 250025Z AUTO 31009KT 270V350 9999 BKN014 OVC019 08/05
Q1007=

ZCZC
SA250025 EHFZ     F16-A   NLD   43 m.
METAR EHFZ 250025Z AUTO 23011KT 9999 FEW018 05/02 Q1003=

ZCZC
SA250025 EHKV     K14-FA-1C   NLD   41 m.
METAR EHKV 250025Z AUTO 28030KT 9999 FEW009 SCT031 BKN037 06/01
Q1006=

ZCZC
SA250025 EHMG     L9-FF-1   NLD   44 m.
METAR EHMG 250025Z AUTO 30010KT 250V360 9999 FEW024 SCT044 05/02
Q1004=

ZCZC
SA250025 EHMA     AWG-1   NLD   40 m.
METAR EHMA 250025Z AUTO 31030KT 9999 DZ FEW007 SCT030 04/03 Q1003=

ZCZC
SA250025 EHDV     D15-FA-1   NLD   42 m.
METAR EHDV 250025Z AUTO 28019KT 240V020 9999 FEW017/// SCT022///
BKN034/// 05/01 Q1003=

ZCZC
SA250025 EHAK     A12-CPP   NLD   48 m.
METAR EHAK 250025Z AUTO 06018KT 9999 -UP FEW009/// SCT011///
BKN015/// 04/00 Q1004=

ZCZC
SA250025 EHQE     HOORN-A   NLD   50 m.
METAR EHQE 250025Z AUTO 31022KT 9999 FEW020 SCT041 BKN045 07/02
Q1005=

ZCZC
SA250025 EHJA     J6-A   NLD   45 m.
METAR EHJA 250025Z AUTO 28027KT 9999 FEW015/// SCT019/// BKN048///
05/01 Q1004=

ZCZC
SA250025 EHPG     P11-B   NLD   41 m.
METAR EHPG 250025Z AUTO 29014KT 250V330 9999 FEW031 SCT045 07/02
Q1007=

ZCZC
SA250025 EHHW     BUITENGAATS/BG-OHVS2      42 m.
METAR EHHW 250025Z AUTO 29012KT 9999 -RA FEW013/// SCT017///
BKN021/// 05/01 Q1003 RERA REDZ=

ZCZC
SA250025 EHFS     VLISSINGEN AWS   NLD   8 m.
METAR EHFS 250025Z AUTO 31015G25KT 260V340 9999 NSC 08/02 Q1008=

25/04/2017 02.45 uur LT